Aérodrome :
LOGIN :

S'inscrire | Disclaimer

   EN    FR    IT 

 










Légende :    VFR   VFR Marginal   IFR   IFR Intensif   IFR Très Intensif
Visi : 
Plafond : 
>= 8 km
>= 3000ft
5 à 8 km
1000 à 3000 ft
1500m à 5 km
500 à 1000 ft
800 à 1500m
200 à 500 ft
< 800m
< 200 ft
Symboles :   Orages  Brouillard  Fortes neiges  Fortes précipitations  Vent > 20 kt
SIGMETs :   Divers  Orages  Givrage  Turbulence  Onde Orograph.  Cendres Volcan.







- Altitude de l'aérodrome : 1455 ft


ETIH - Hohenfels Army Air Field

DERNIER METAR :
  • 162356Z AUTO 00000KT 0800 FG CLR 07/07 A3032 RMK AO2 SLP268 T00660065 10120 20065 58005 RVRNO $

METARs EXPIRÉS :
  • 162343Z AUTO 00000KT 1400 BR CLR 07/07 A3032 RMK AO2 VIS 1400V2600 SLP268 RVRNO $
  • 162333Z AUTO 00000KT 2800 BR CLR 07/07 A3032 RMK AO2 VIS 2800V4000 SLP268 $
  • 162319Z AUTO 00000KT 3200 BR SCT001 07/07 A3033 RMK AO2 VIS 1200V3200 SLP273 $
  • 162315Z AUTO 00000KT 2000 BR SCT001 07/07 A3033 RMK AO2 VIS 1200V2000 SLP273 $
  • 162308Z AUTO 00000KT 1400 BR SCT001 07/07 A3033 RMK AO2 SLP273 RVRNO $
  • 162255Z AUTO 00000KT 2400 BR SCT001 07/07 A3033 RMK AO2 VIS 2400V9999 SLP275 $
  • 162156Z AUTO 00000KT 9999 CLR 08/08 A3033 RMK AO2 SLP275 T00810080 $
  • 162137Z AUTO 00000KT 5000 BR CLR 08/08 A3034 RMK AO2 SLP281 $
  • 162136Z AUTO 00000KT 3600 BR CLR 08/08 A3034 RMK AO2 VIS 1800V8000 SLP281 $
  • 162109Z AUTO 00000KT 6000 BR CLR 08/08 A3034 RMK AO2 SLP281 $
  • 162102Z AUTO 00000KT 2400 BR CLR 09/08 A3033 RMK AO2 VIS 2400V8000 SLP277 $

Prévision TAF périmée.
Pas de NOTAMs connus pour ce terrain.



MET'MAP, la Météo Aéronautique d'un coup d'oeil ! - Copyright ORBIFLY Décembre 2007 - Disclaimer

ORBIFLY MET'MAP TEAM :

Programmation & Développement : Alexandra Zaïnal
Conception & Développement : Baudouin d'Aumeries
Co-Programmation & Développement : Marc-Olivier Méhu
Soutien technique & logistique : Manuel Goepfert

Contact : metmap@orbifly.com




SOURCES & CREDITS :

   NOAA